Kim King — WDG5328 — position and weather

sailwx.info

Track history (hours):
 
Tides and Currents Weather Stations Pressure Air Temp Water Temp Dewpoint Dewpoint Depression Visibility Wind Speed Wind Dir Waves Ship Positions

Kim King

Owner: Terral RiverService, Inc., Lake Providence, LA. More information available from US FCC via Universal Licensing System and Coast Guard Vessel Documentation Center.

Last reported at 2018-Jun-24 20:00 UTC. Time now 2018-Jun-24 20:16 UTC.
Position N 32°30' W 091°07'.

; draft 6 m.

Type: Towing. MMSI: 367545540.

Date/timePositionNaut miles runAvg speedWind from/ knotsBaromVisibWave heightAir tempDewpointWater temp
2018-Jun-24 20:00N 32°30' W 091°07'0 0.0
2018-Jun-24 19:30N 32°30' W 091°07'0 0.0
2018-Jun-24 19:00N 32°30' W 091°07'0 0.0
2018-Jun-24 18:30N 32°30' W 091°07'0 0.5
2018-Jun-24 18:00N 32°30' W 091°07'5 9.7
2018-Jun-24 17:30N 32°35' W 091°07'5 9.9
2018-Jun-24 17:00N 32°39' W 091°09'6 1.3
2018-Jun-24 12:06N 32°45' W 091°10'0 0.0
2018-Jun-24 11:54N 32°45' W 091°10'0 0.1
2018-Jun-24 11:21N 32°45' W 091°10'0 0.8
2018-Jun-24 10:58N 32°45' W 091°10'0 0.7
2018-Jun-24 10:25N 32°45' W 091°10'0 0.0
2018-Jun-24 09:59N 32°45' W 091°10'0 0.0
2018-Jun-24 09:28N 32°45' W 091°10'0 0.0
2018-Jun-24 08:59N 32°45' W 091°10'0 0.0
2018-Jun-24 08:29N 32°45' W 091°10'0 0.0
2018-Jun-24 07:56N 32°45' W 091°10'0 0.0
2018-Jun-23 23:19N 32°45' W 091°10'0 1.0
2018-Jun-23 22:55N 32°45' W 091°10'0 0.0
2018-Jun-23 15:24N 32°45' W 091°10'1 1.4
2018-Jun-23 14:56N 32°45' W 091°09'1 1.2
2018-Jun-23 14:30N 32°45' W 091°09'0 0.5
2018-Jun-23 13:28N 32°45' W 091°10'0 0.3
2018-Jun-23 12:59N 32°45' W 091°10'0 1.0
2018-Jun-23 12:30N 32°45' W 091°09'0 0.2
2018-Jun-23 12:00N 32°45' W 091°09'0 0.5
2018-Jun-23 11:30N 32°45' W 091°09'1 1.1
2018-Jun-23 10:41N 32°45' W 091°10'0 0.0
2018-Jun-23 10:28N 32°45' W 091°10'0 0.0
2018-Jun-23 10:00N 32°45' W 091°10'0 0.0
2018-Jun-23 09:20N 32°45' W 091°10'0 0.0
2018-Jun-23 08:53N 32°45' W 091°10'1 0.3
2018-Jun-23 07:13N 32°45' W 091°10'1 0.2
2018-Jun-23 03:53N 32°45' W 091°10'0 0.0
2018-Jun-23 03:27N 32°45' W 091°10'0 0.1
2018-Jun-23 02:53N 32°45' W 091°10'3 4.9
2018-Jun-23 02:21N 32°44' W 091°08'2 5.0
2018-Jun-23 02:00N 32°44' W 091°06'1 1.5
2018-Jun-23 01:30N 32°44' W 091°05'0 0.1
2018-Jun-23 01:00N 32°44' W 091°05'0 0.0
2018-Jun-23 00:30N 32°44' W 091°05'0 0.1
2018-Jun-23 00:00N 32°44' W 091°05'0 0.1
2018-Jun-22 23:27N 32°44' W 091°05'5 1.9
2018-Jun-22 20:59N 32°45' W 091°10'0 0.3
2018-Jun-22 20:30N 32°45' W 091°10'0 0.0
2018-Jun-22 18:25N 32°45' W 091°10'0 0.5
2018-Jun-22 18:00N 32°45' W 091°10'0 0.0
2018-Jun-22 17:30N 32°45' W 091°10'0 0.0
2018-Jun-22 10:16N 32°45' W 091°10'0 0.0
2018-Jun-22 09:55N 32°45' W 091°10'0 0.0
2018-Jun-22 09:28N 32°45' W 091°10'0 0.0
2018-Jun-22 08:52N 32°45' W 091°10'6 1.5
2018-Jun-22 04:58N 32°40' W 091°07'3 5.3
2018-Jun-22 04:23N 32°38' W 091°09'0 0.6
2018-Jun-22 04:00N 32°37' W 091°09'0 0.0
2018-Jun-22 03:30N 32°37' W 091°09'0 0.0
2018-Jun-22 03:00N 32°37' W 091°09'0 0.0
2018-Jun-22 02:30N 32°37' W 091°09'0 0.0
2018-Jun-22 02:00N 32°37' W 091°09'0 0.0
2018-Jun-22 01:30N 32°37' W 091°09'0 0.0
2018-Jun-22 01:00N 32°37' W 091°09'0 0.0
2018-Jun-22 00:30N 32°37' W 091°09'0 0.0
2018-Jun-22 00:00N 32°37' W 091°09'0 0.2
2018-Jun-21 23:30N 32°37' W 091°09'1 2.4
2018-Jun-21 22:58N 32°39' W 091°09'2 4.1
2018-Jun-21 22:30N 32°40' W 091°08'1 1.0
2018-Jun-21 22:00N 32°40' W 091°08'3 5.9
2018-Jun-21 21:30N 32°37' W 091°09'3 5.8
2018-Jun-21 21:00N 32°35' W 091°07'3 5.3
2018-Jun-21 20:30N 32°32' W 091°06'2 4.4
2018-Jun-21 20:00N 32°30' W 091°07'0 0.9
2018-Jun-21 19:30N 32°30' W 091°07'0 0.0
2018-Jun-21 18:59N 32°30' W 091°07'3 5.8
2018-Jun-21 18:29N 32°32' W 091°06'511.1
2018-Jun-21 18:00N 32°37' W 091°09'9 1.1
2018-Jun-21 09:55N 32°45' W 091°10'0 0.0
2018-Jun-21 09:04N 32°45' W 091°10'0 0.0
2018-Jun-21 08:42N 32°45' W 091°10'0 0.0
2018-Jun-21 08:14N 32°45' W 091°10'0 0.1
2018-Jun-21 07:47N 32°45' W 091°10'1 1.7
2018-Jun-21 06:56N 32°44' W 091°09'1 0.6
2018-Jun-21 04:32N 32°45' W 091°10'0 0.0
2018-Jun-21 04:16N 32°45' W 091°10'0 0.0
2018-Jun-21 03:59N 32°45' W 091°10'0 0.0
2018-Jun-21 03:30N 32°45' W 091°10'0 0.0
2018-Jun-21 03:00N 32°45' W 091°10'0 0.0
2018-Jun-21 02:21N 32°45' W 091°10'0 0.0
2018-Jun-21 01:36N 32°45' W 091°10'0 0.0
2018-Jun-21 01:24N 32°45' W 091°10'6 2.4
2018-Jun-20 22:58N 32°40' W 091°07'3 5.4
2018-Jun-20 22:23N 32°38' W 091°09'2 6.0
2018-Jun-20 22:00N 32°36' W 091°08'3 5.5
2018-Jun-20 21:30N 32°34' W 091°06'3 5.7
2018-Jun-20 21:00N 32°31' W 091°07'1 2.4
2018-Jun-20 20:30N 32°30' W 091°07'2 3.4
2018-Jun-20 20:00N 32°31' W 091°06'4 8.3
2018-Jun-20 19:29N 32°35' W 091°08'4 8.5
2018-Jun-20 19:00N 32°39' W 091°09'6 3.6
2018-Jun-20 17:15N 32°45' W 091°10'0 0.0
2018-Jun-20 16:58N 32°45' W 091°10'0 0.0
2018-Jun-20 16:30N 32°45' W 091°10'0 0.0
2018-Jun-20 15:59N 32°45' W 091°10'1 1.3
2018-Jun-20 15:29N 32°45' W 091°10'5 4.4
2018-Jun-20 14:23N 32°44' W 091°04'3 4.3
2018-Jun-20 13:45N 32°41' W 091°05'2 5.6
2018-Jun-20 13:27N 32°40' W 091°07'2 4.5
2018-Jun-20 13:00N 32°39' W 091°09'3 5.6
2018-Jun-20 12:30N 32°37' W 091°09'2 5.0
2018-Jun-20 12:00N 32°35' W 091°07'2 4.7
2018-Jun-20 11:30N 32°33' W 091°06'3 5.8
2018-Jun-20 11:00N 32°30' W 091°07'0 0.6
2018-Jun-20 10:30N 32°30' W 091°07'3 6.0
2018-Jun-20 10:00N 32°32' W 091°06'4 7.5
2018-Jun-20 09:30N 32°36' W 091°08'4 7.8
2018-Jun-20 09:00N 32°39' W 091°09'4 7.0
2018-Jun-20 08:28N 32°41' W 091°05'3 6.0
2018-Jun-20 07:59N 32°44' W 091°04'4 6.6
2018-Jun-20 07:19N 32°44' W 091°10'1 2.3
2018-Jun-20 07:00N 32°45' W 091°10'0 0.7
2018-Jun-20 06:30N 32°45' W 091°10'0 0.9
2018-Jun-20 06:00N 32°45' W 091°09'0 0.1
2018-Jun-20 05:31N 32°45' W 091°09'0 0.1
2018-Jun-20 05:00N 32°45' W 091°09'0 0.9
2018-Jun-20 04:31N 32°45' W 091°09'1 1.1
2018-Jun-20 03:52N 32°45' W 091°10'1 1.1
2018-Jun-20 03:22N 32°45' W 091°10'0 0.0
2018-Jun-20 02:59N 32°45' W 091°10'0 0.0
2018-Jun-20 02:28N 32°45' W 091°10'0 0.2
2018-Jun-20 02:00N 32°45' W 091°10'0 0.2
2018-Jun-20 01:27N 32°45' W 091°10'0 0.0
2018-Jun-20 01:00N 32°45' W 091°10'0 0.0
2018-Jun-19 15:31N 32°45' W 091°10'0 0.0
2018-Jun-19 15:27N 32°45' W 091°10'0 0.0
2018-Jun-19 15:00N 32°45' W 091°10'0 0.0
2018-Jun-19 14:28N 32°45' W 091°10'0 0.0
2018-Jun-19 14:00N 32°45' W 091°10'0 0.0
2018-Jun-19 13:30N 32°45' W 091°10'0 0.0
2018-Jun-19 13:00N 32°45' W 091°10'0 0.0
2018-Jun-19 12:30N 32°45' W 091°10'0 0.0
2018-Jun-19 11:59N 32°45' W 091°10'0 0.0
2018-Jun-19 11:30N 32°45' W 091°10'0 0.0
2018-Jun-19 11:00N 32°45' W 091°10'0 0.0
2018-Jun-19 10:30N 32°45' W 091°10'0 0.0
2018-Jun-19 09:59N 32°45' W 091°10'0 0.0
2018-Jun-19 09:29N 32°45' W 091°10'0 0.0
2018-Jun-19 09:00N 32°45' W 091°10'0 0.0
2018-Jun-19 08:30N 32°45' W 091°10'0 0.0
2018-Jun-19 07:59N 32°45' W 091°10'1 1.1
2018-Jun-19 07:30N 32°45' W 091°10'0 0.7
2018-Jun-19 07:00N 32°45' W 091°10'0 0.0
2018-Jun-19 06:30N 32°45' W 091°10'0 0.3
2018-Jun-19 05:59N 32°45' W 091°10'0 0.0
2018-Jun-19 05:30N 32°45' W 091°10'0 0.0
2018-Jun-19 04:59N 32°45' W 091°10'0 0.0
2018-Jun-19 04:30N 32°45' W 091°10'0 0.0
2018-Jun-19 04:00N 32°45' W 091°10'0 0.0
2018-Jun-19 03:30N 32°45' W 091°10'0 0.0
2018-Jun-19 02:59N 32°45' W 091°10'0 0.0
2018-Jun-19 02:30N 32°45' W 091°10'0 0.0
2018-Jun-19 01:59N 32°45' W 091°10'0 0.0
2018-Jun-19 01:29N 32°45' W 091°10'0 0.0
2018-Jun-19 01:00N 32°45' W 091°10'0 0.6
2018-Jun-19 00:20N 32°45' W 091°10'0 0.7
2018-Jun-18 23:58N 32°45' W 091°10'0 0.0
2018-Jun-18 14:37N 32°45' W 091°10'0 0.0
2018-Jun-18 14:24N 32°45' W 091°10'0 0.0
2018-Jun-18 13:46N 32°45' W 091°10'0 0.0
2018-Jun-18 13:10N 32°45' W 091°10'0 0.0
2018-Jun-18 12:53N 32°45' W 091°10'0 0.0
2018-Jun-18 12:17N 32°45' W 091°10'0 0.0
2018-Jun-18 12:00N 32°45' W 091°10'0 0.0
2018-Jun-18 11:16N 32°45' W 091°10'0 0.0
2018-Jun-18 10:58N 32°45' W 091°10'0 0.0
2018-Jun-18 10:30N 32°45' W 091°10'0 0.0
2018-Jun-18 09:59N 32°45' W 091°10'0 0.0
2018-Jun-18 09:30N 32°45' W 091°10'0 0.0
2018-Jun-18 09:00N 32°45' W 091°10'0 0.0
2018-Jun-18 08:25N 32°45' W 091°10'0 0.0
2018-Jun-18 08:00N 32°45' W 091°10'0 0.0
2018-Jun-18 07:29N 32°45' W 091°10'0 0.0
2018-Jun-18 07:00N 32°45' W 091°10'0 0.0
2018-Jun-18 06:30N 32°45' W 091°10'1 1.1
2018-Jun-18 05:57N 32°45' W 091°10'0 1.0
2018-Jun-18 05:28N 32°45' W 091°09'0 0.9
2018-Jun-18 04:56N 32°45' W 091°10'0 0.5
2018-Jun-18 04:30N 32°45' W 091°10'1 1.0
2018-Jun-18 04:00N 32°45' W 091°09'0 0.0
2018-Jun-18 03:27N 32°45' W 091°09'1 1.7
2018-Jun-18 03:00N 32°44' W 091°09'1 1.9
2018-Jun-18 02:16N 32°45' W 091°10'0 0.0
2018-Jun-18 02:00N 32°45' W 091°10'0 0.0
2018-Jun-18 01:26N 32°45' W 091°10'0 0.0
2018-Jun-17 22:02N 32°45' W 091°10'0 0.0
2018-Jun-17 22:00N 32°45' W 091°10'0 0.0
2018-Jun-17 20:52N 32°45' W 091°10'0 0.0
2018-Jun-17 20:30N 32°45' W 091°10'0 0.0
2018-Jun-17 20:00N 32°45' W 091°10'0 0.0
2018-Jun-17 19:27N 32°45' W 091°10'0 0.0
2018-Jun-17 18:51N 32°45' W 091°10'0 0.0
2018-Jun-17 16:57N 32°45' W 091°10'0 0.0
2018-Jun-17 16:12N 32°45' W 091°10'0 0.0
2018-Jun-17 13:22N 32°45' W 091°10'0 0.0
2018-Jun-17 12:56N 32°45' W 091°10'0 0.0
2018-Jun-17 12:30N 32°45' W 091°10'0 0.0
2018-Jun-17 11:55N 32°45' W 091°10'0 0.0
2018-Jun-17 11:30N 32°45' W 091°10'0 0.0
2018-Jun-17 10:56N 32°45' W 091°10'0 0.0
2018-Jun-17 10:30N 32°45' W 091°10'0 0.0
2018-Jun-17 10:00N 32°45' W 091°10'0 0.0
2018-Jun-17 09:30N 32°45' W 091°10'0 0.0
2018-Jun-17 08:56N 32°45' W 091°10'0 0.0
2018-Jun-17 08:25N 32°45' W 091°10'0 0.0
2018-Jun-17 07:50N 32°45' W 091°10'0 0.0
2018-Jun-17 07:24N 32°45' W 091°10'0 0.0
2018-Jun-17 07:00N 32°45' W 091°10'0 0.0
2018-Jun-17 06:30N 32°45' W 091°10'0 0.0
2018-Jun-17 06:00N 32°45' W 091°10'0 0.0
2018-Jun-17 05:30N 32°45' W 091°10'0 0.0
2018-Jun-17 05:00N 32°45' W 091°10'0 0.0
2018-Jun-17 04:30N 32°45' W 091°10'0 0.0
2018-Jun-17 04:01N 32°45' W 091°10'1 1.0
2018-Jun-17 03:29N 32°45' W 091°10'1 1.8
2018-Jun-17 02:58N 32°44' W 091°09'0 0.1
2018-Jun-17 02:30N 32°44' W 091°09'1 1.0
2018-Jun-17 01:39N 32°45' W 091°10'1 1.5
2018-Jun-17 01:09N 32°45' W 091°09'0 0.1
2018-Jun-17 00:56N 32°44' W 091°09'5 0.4
2018-Jun-16 12:49N 32°40' W 091°07'1 2.4
2018-Jun-16 12:30N 32°40' W 091°07'1 1.7
2018-Jun-16 12:00N 32°40' W 091°08'0 0.7
2018-Jun-16 11:30N 32°39' W 091°09'0 1.0
2018-Jun-16 11:01N 32°39' W 091°09'1 2.5
2018-Jun-16 10:30N 32°38' W 091°09'1 2.3
2018-Jun-16 10:01N 32°37' W 091°09'1 2.1
2018-Jun-16 09:31N 32°36' W 091°08'1 1.8
2018-Jun-16 09:01N 32°35' W 091°07'1 2.1
2018-Jun-16 08:30N 32°34' W 091°07'1 1.8
2018-Jun-16 08:00N 32°34' W 091°06'1 1.5
2018-Jun-16 07:29N 32°33' W 091°06'1 2.0
2018-Jun-16 07:00N 32°32' W 091°06'1 2.2
2018-Jun-16 06:28N 32°31' W 091°07'1 1.9
2018-Jun-16 05:59N 32°30' W 091°07'0 0.9
2018-Jun-16 05:30N 32°30' W 091°07'3 6.8
2018-Jun-16 05:00N 32°33' W 091°06'510.6
2018-Jun-16 04:30N 32°37' W 091°09'8 5.3
2018-Jun-16 02:59N 32°45' W 091°10'0 0.0
2018-Jun-16 02:19N 32°45' W 091°10'0 0.0
2018-Jun-16 01:15N 32°45' W 091°10'0 0.0
2018-Jun-16 01:00N 32°45' W 091°10'0 0.0
2018-Jun-15 12:28N 32°45' W 091°10'0 0.0
2018-Jun-15 12:00N 32°45' W 091°10'0 0.0
2018-Jun-15 11:30N 32°45' W 091°10'0 0.0
2018-Jun-15 11:01N 32°45' W 091°10'0 0.0
2018-Jun-15 10:31N 32°45' W 091°10'0 0.0
2018-Jun-15 10:00N 32°45' W 091°10'0 0.0
2018-Jun-15 09:29N 32°45' W 091°10'0 0.4
2018-Jun-15 09:01N 32°45' W 091°10'0 0.0
2018-Jun-15 08:16N 32°45' W 091°10'0 0.0
2018-Jun-15 07:56N 32°45' W 091°10'0 0.2
2018-Jun-15 07:28N 32°45' W 091°10'0 0.4
2018-Jun-15 07:00N 32°45' W 091°10'1 1.9
2018-Jun-15 06:22N 32°44' W 091°09'0 0.5
2018-Jun-15 06:00N 32°44' W 091°09'0 0.1
2018-Jun-15 05:30N 32°44' W 091°09'0 0.0
2018-Jun-15 05:00N 32°44' W 091°09'0 0.0
2018-Jun-15 04:14N 32°44' W 091°09'0 0.1
2018-Jun-15 04:00N 32°44' W 091°09'1 2.0
2018-Jun-15 03:28N 32°45' W 091°10'5 1.0
2018-Jun-14 22:13N 32°40' W 091°08'0 1.7
2018-Jun-14 22:00N 32°40' W 091°08'1 1.0
2018-Jun-14 21:26N 32°40' W 091°08'2 2.7
2018-Jun-14 20:47N 32°38' W 091°09'1 2.9
2018-Jun-14 20:29N 32°37' W 091°09'1 2.4
2018-Jun-14 20:00N 32°36' W 091°08'  
Track history (hours):
 
Tides and Currents Weather Stations Pressure Air Temp Water Temp Dewpoint Dewpoint Depression Visibility Wind Speed Wind Dir Waves Ship Positions

Kim King

Owner: Terral RiverService, Inc., Lake Providence, LA. More information available from US FCC via Universal Licensing System and Coast Guard Vessel Documentation Center.

Last reported at 2018-Jun-24 20:00 UTC. Time now 2018-Jun-24 20:16 UTC.
Position N 32°30' W 091°07'.

; draft 6 m.

Type: Towing. MMSI: 367545540.

Date/timePositionNaut miles runAvg speedWind from/ knotsBaromVisibWave heightAir tempDewpointWater temp
2018-Jun-24 20:00N 32°30' W 091°07'0 0.0
2018-Jun-24 19:30N 32°30' W 091°07'0 0.0
2018-Jun-24 19:00N 32°30' W 091°07'0 0.0
2018-Jun-24 18:30N 32°30' W 091°07'0 0.5
2018-Jun-24 18:00N 32°30' W 091°07'5 9.7
2018-Jun-24 17:30N 32°35' W 091°07'5 9.9
2018-Jun-24 17:00N 32°39' W 091°09'6 1.3
2018-Jun-24 12:06N 32°45' W 091°10'0 0.0
2018-Jun-24 11:54N 32°45' W 091°10'0 0.1
2018-Jun-24 11:21N 32°45' W 091°10'0 0.8
2018-Jun-24 10:58N 32°45' W 091°10'0 0.7
2018-Jun-24 10:25N 32°45' W 091°10'0 0.0
2018-Jun-24 09:59N 32°45' W 091°10'0 0.0
2018-Jun-24 09:28N 32°45' W 091°10'0 0.0
2018-Jun-24 08:59N 32°45' W 091°10'0 0.0
2018-Jun-24 08:29N 32°45' W 091°10'0 0.0
2018-Jun-24 07:56N 32°45' W 091°10'0 0.0
2018-Jun-23 23:19N 32°45' W 091°10'0 1.0
2018-Jun-23 22:55N 32°45' W 091°10'0 0.0
2018-Jun-23 15:24N 32°45' W 091°10'1 1.4
2018-Jun-23 14:56N 32°45' W 091°09'1 1.2
2018-Jun-23 14:30N 32°45' W 091°09'0 0.5
2018-Jun-23 13:28N 32°45' W 091°10'0 0.3
2018-Jun-23 12:59N 32°45' W 091°10'0 1.0
2018-Jun-23 12:30N 32°45' W 091°09'0 0.2
2018-Jun-23 12:00N 32°45' W 091°09'0 0.5
2018-Jun-23 11:30N 32°45' W 091°09'1 1.1
2018-Jun-23 10:41N 32°45' W 091°10'0 0.0
2018-Jun-23 10:28N 32°45' W 091°10'0 0.0
2018-Jun-23 10:00N 32°45' W 091°10'0 0.0
2018-Jun-23 09:20N 32°45' W 091°10'0 0.0
2018-Jun-23 08:53N 32°45' W 091°10'1 0.3
2018-Jun-23 07:13N 32°45' W 091°10'1 0.2
2018-Jun-23 03:53N 32°45' W 091°10'0 0.0
2018-Jun-23 03:27N 32°45' W 091°10'0 0.1
2018-Jun-23 02:53N 32°45' W 091°10'3 4.9
2018-Jun-23 02:21N 32°44' W 091°08'2 5.0
2018-Jun-23 02:00N 32°44' W 091°06'1 1.5
2018-Jun-23 01:30N 32°44' W 091°05'0 0.1
2018-Jun-23 01:00N 32°44' W 091°05'0 0.0
2018-Jun-23 00:30N 32°44' W 091°05'0 0.1
2018-Jun-23 00:00N 32°44' W 091°05'0 0.1
2018-Jun-22 23:27N 32°44' W 091°05'5 1.9
2018-Jun-22 20:59N 32°45' W 091°10'0 0.3
2018-Jun-22 20:30N 32°45' W 091°10'0 0.0
2018-Jun-22 18:25N 32°45' W 091°10'0 0.5
2018-Jun-22 18:00N 32°45' W 091°10'0 0.0
2018-Jun-22 17:30N 32°45' W 091°10'0 0.0
2018-Jun-22 10:16N 32°45' W 091°10'0 0.0
2018-Jun-22 09:55N 32°45' W 091°10'0 0.0
2018-Jun-22 09:28N 32°45' W 091°10'0 0.0
2018-Jun-22 08:52N 32°45' W 091°10'6 1.5
2018-Jun-22 04:58N 32°40' W 091°07'3 5.3
2018-Jun-22 04:23N 32°38' W 091°09'0 0.6
2018-Jun-22 04:00N 32°37' W 091°09'0 0.0
2018-Jun-22 03:30N 32°37' W 091°09'0 0.0
2018-Jun-22 03:00N 32°37' W 091°09'0 0.0
2018-Jun-22 02:30N 32°37' W 091°09'0 0.0
2018-Jun-22 02:00N 32°37' W 091°09'0 0.0
2018-Jun-22 01:30N 32°37' W 091°09'0 0.0
2018-Jun-22 01:00N 32°37' W 091°09'0 0.0
2018-Jun-22 00:30N 32°37' W 091°09'0 0.0
2018-Jun-22 00:00N 32°37' W 091°09'0 0.2
2018-Jun-21 23:30N 32°37' W 091°09'1 2.4
2018-Jun-21 22:58N 32°39' W 091°09'2 4.1
2018-Jun-21 22:30N 32°40' W 091°08'1 1.0
2018-Jun-21 22:00N 32°40' W 091°08'3 5.9
2018-Jun-21 21:30N 32°37' W 091°09'3 5.8
2018-Jun-21 21:00N 32°35' W 091°07'3 5.3
2018-Jun-21 20:30N 32°32' W 091°06'2 4.4
2018-Jun-21 20:00N 32°30' W 091°07'0 0.9
2018-Jun-21 19:30N 32°30' W 091°07'0 0.0
2018-Jun-21 18:59N 32°30' W 091°07'3 5.8
2018-Jun-21 18:29N 32°32' W 091°06'511.1
2018-Jun-21 18:00N 32°37' W 091°09'9 1.1
2018-Jun-21 09:55N 32°45' W 091°10'0 0.0
2018-Jun-21 09:04N 32°45' W 091°10'0 0.0
2018-Jun-21 08:42N 32°45' W 091°10'0 0.0
2018-Jun-21 08:14N 32°45' W 091°10'0 0.1
2018-Jun-21 07:47N 32°45' W 091°10'1 1.7
2018-Jun-21 06:56N 32°44' W 091°09'1 0.6
2018-Jun-21 04:32N 32°45' W 091°10'0 0.0
2018-Jun-21 04:16N 32°45' W 091°10'0 0.0
2018-Jun-21 03:59N 32°45' W 091°10'0 0.0
2018-Jun-21 03:30N 32°45' W 091°10'0 0.0
2018-Jun-21 03:00N 32°45' W 091°10'0 0.0
2018-Jun-21 02:21N 32°45' W 091°10'0 0.0
2018-Jun-21 01:36N 32°45' W 091°10'0 0.0
2018-Jun-21 01:24N 32°45' W 091°10'6 2.4
2018-Jun-20 22:58N 32°40' W 091°07'3 5.4
2018-Jun-20 22:23N 32°38' W 091°09'2 6.0
2018-Jun-20 22:00N 32°36' W 091°08'3 5.5
2018-Jun-20 21:30N 32°34' W 091°06'3 5.7
2018-Jun-20 21:00N 32°31' W 091°07'1 2.4
2018-Jun-20 20:30N 32°30' W 091°07'2 3.4
2018-Jun-20 20:00N 32°31' W 091°06'4 8.3
2018-Jun-20 19:29N 32°35' W 091°08'4 8.5
2018-Jun-20 19:00N 32°39' W 091°09'6 3.6
2018-Jun-20 17:15N 32°45' W 091°10'0 0.0
2018-Jun-20 16:58N 32°45' W 091°10'0 0.0
2018-Jun-20 16:30N 32°45' W 091°10'0 0.0
2018-Jun-20 15:59N 32°45' W 091°10'1 1.3
2018-Jun-20 15:29N 32°45' W 091°10'5 4.4
2018-Jun-20 14:23N 32°44' W 091°04'3 4.3
2018-Jun-20 13:45N 32°41' W 091°05'2 5.6
2018-Jun-20 13:27N 32°40' W 091°07'2 4.5
2018-Jun-20 13:00N 32°39' W 091°09'3 5.6
2018-Jun-20 12:30N 32°37' W 091°09'2 5.0
2018-Jun-20 12:00N 32°35' W 091°07'2 4.7
2018-Jun-20 11:30N 32°33' W 091°06'3 5.8
2018-Jun-20 11:00N 32°30' W 091°07'0 0.6
2018-Jun-20 10:30N 32°30' W 091°07'3 6.0
2018-Jun-20 10:00N 32°32' W 091°06'4 7.5
2018-Jun-20 09:30N 32°36' W 091°08'4 7.8
2018-Jun-20 09:00N 32°39' W 091°09'4 7.0
2018-Jun-20 08:28N 32°41' W 091°05'3 6.0
2018-Jun-20 07:59N 32°44' W 091°04'4 6.6
2018-Jun-20 07:19N 32°44' W 091°10'1 2.3
2018-Jun-20 07:00N 32°45' W 091°10'0 0.7
2018-Jun-20 06:30N 32°45' W 091°10'0 0.9
2018-Jun-20 06:00N 32°45' W 091°09'0 0.1
2018-Jun-20 05:31N 32°45' W 091°09'0 0.1
2018-Jun-20 05:00N 32°45' W 091°09'0 0.9
2018-Jun-20 04:31N 32°45' W 091°09'1 1.1
2018-Jun-20 03:52N 32°45' W 091°10'1 1.1
2018-Jun-20 03:22N 32°45' W 091°10'0 0.0
2018-Jun-20 02:59N 32°45' W 091°10'0 0.0
2018-Jun-20 02:28N 32°45' W 091°10'0 0.2
2018-Jun-20 02:00N 32°45' W 091°10'0 0.2
2018-Jun-20 01:27N 32°45' W 091°10'0 0.0
2018-Jun-20 01:00N 32°45' W 091°10'0 0.0
2018-Jun-19 15:31N 32°45' W 091°10'0 0.0
2018-Jun-19 15:27N 32°45' W 091°10'0 0.0
2018-Jun-19 15:00N 32°45' W 091°10'0 0.0
2018-Jun-19 14:28N 32°45' W 091°10'0 0.0
2018-Jun-19 14:00N 32°45' W 091°10'0 0.0
2018-Jun-19 13:30N 32°45' W 091°10'0 0.0
2018-Jun-19 13:00N 32°45' W 091°10'0 0.0
2018-Jun-19 12:30N 32°45' W 091°10'0 0.0
2018-Jun-19 11:59N 32°45' W 091°10'0 0.0
2018-Jun-19 11:30N 32°45' W 091°10'0 0.0
2018-Jun-19 11:00N 32°45' W 091°10'0 0.0
2018-Jun-19 10:30N 32°45' W 091°10'0 0.0
2018-Jun-19 09:59N 32°45' W 091°10'0 0.0
2018-Jun-19 09:29N 32°45' W 091°10'0 0.0
2018-Jun-19 09:00N 32°45' W 091°10'0 0.0
2018-Jun-19 08:30N 32°45' W 091°10'0 0.0
2018-Jun-19 07:59N 32°45' W 091°10'1 1.1
2018-Jun-19 07:30N 32°45' W 091°10'0 0.7
2018-Jun-19 07:00N 32°45' W 091°10'0 0.0
2018-Jun-19 06:30N 32°45' W 091°10'0 0.3
2018-Jun-19 05:59N 32°45' W 091°10'0 0.0
2018-Jun-19 05:30N 32°45' W 091°10'0 0.0
2018-Jun-19 04:59N 32°45' W 091°10'0 0.0
2018-Jun-19 04:30N 32°45' W 091°10'0 0.0
2018-Jun-19 04:00N 32°45' W 091°10'0 0.0
2018-Jun-19 03:30N 32°45' W 091°10'0 0.0
2018-Jun-19 02:59N 32°45' W 091°10'0 0.0
2018-Jun-19 02:30N 32°45' W 091°10'0 0.0
2018-Jun-19 01:59N 32°45' W 091°10'0 0.0
2018-Jun-19 01:29N 32°45' W 091°10'0 0.0
2018-Jun-19 01:00N 32°45' W 091°10'0 0.6
2018-Jun-19 00:20N 32°45' W 091°10'0 0.7
2018-Jun-18 23:58N 32°45' W 091°10'0 0.0
2018-Jun-18 14:37N 32°45' W 091°10'0 0.0
2018-Jun-18 14:24N 32°45' W 091°10'0 0.0
2018-Jun-18 13:46N 32°45' W 091°10'0 0.0
2018-Jun-18 13:10N 32°45' W 091°10'0 0.0
2018-Jun-18 12:53N 32°45' W 091°10'0 0.0
2018-Jun-18 12:17N 32°45' W 091°10'0 0.0
2018-Jun-18 12:00N 32°45' W 091°10'0 0.0
2018-Jun-18 11:16N 32°45' W 091°10'0 0.0
2018-Jun-18 10:58N 32°45' W 091°10'0 0.0
2018-Jun-18 10:30N 32°45' W 091°10'0 0.0
2018-Jun-18 09:59N 32°45' W 091°10'0 0.0
2018-Jun-18 09:30N 32°45' W 091°10'0 0.0
2018-Jun-18 09:00N 32°45' W 091°10'0 0.0
2018-Jun-18 08:25N 32°45' W 091°10'0 0.0
2018-Jun-18 08:00N 32°45' W 091°10'0 0.0
2018-Jun-18 07:29N 32°45' W 091°10'0 0.0
2018-Jun-18 07:00N 32°45' W 091°10'0 0.0
2018-Jun-18 06:30N 32°45' W 091°10'1 1.1
2018-Jun-18 05:57N 32°45' W 091°10'0 1.0
2018-Jun-18 05:28N 32°45' W 091°09'0 0.9
2018-Jun-18 04:56N 32°45' W 091°10'0 0.5
2018-Jun-18 04:30N 32°45' W 091°10'1 1.0
2018-Jun-18 04:00N 32°45' W 091°09'0 0.0
2018-Jun-18 03:27N 32°45' W 091°09'1 1.7
2018-Jun-18 03:00N 32°44' W 091°09'1 1.9
2018-Jun-18 02:16N 32°45' W 091°10'0 0.0
2018-Jun-18 02:00N 32°45' W 091°10'0 0.0
2018-Jun-18 01:26N 32°45' W 091°10'0 0.0
2018-Jun-17 22:02N 32°45' W 091°10'0 0.0
2018-Jun-17 22:00N 32°45' W 091°10'0 0.0
2018-Jun-17 20:52N 32°45' W 091°10'0 0.0
2018-Jun-17 20:30N 32°45' W 091°10'0 0.0
2018-Jun-17 20:00N 32°45' W 091°10'0 0.0
2018-Jun-17 19:27N 32°45' W 091°10'0 0.0
2018-Jun-17 18:51N 32°45' W 091°10'0 0.0
2018-Jun-17 16:57N 32°45' W 091°10'0 0.0
2018-Jun-17 16:12N 32°45' W 091°10'0 0.0
2018-Jun-17 13:22N 32°45' W 091°10'0 0.0
2018-Jun-17 12:56N 32°45' W 091°10'0 0.0
2018-Jun-17 12:30N 32°45' W 091°10'0 0.0
2018-Jun-17 11:55N 32°45' W 091°10'0 0.0
2018-Jun-17 11:30N 32°45' W 091°10'0 0.0
2018-Jun-17 10:56N 32°45' W 091°10'0 0.0
2018-Jun-17 10:30N 32°45' W 091°10'0 0.0
2018-Jun-17 10:00N 32°45' W 091°10'0 0.0
2018-Jun-17 09:30N 32°45' W 091°10'0 0.0
2018-Jun-17 08:56N 32°45' W 091°10'0 0.0
2018-Jun-17 08:25N 32°45' W 091°10'0 0.0
2018-Jun-17 07:50N 32°45' W 091°10'0 0.0
2018-Jun-17 07:24N 32°45' W 091°10'0 0.0
2018-Jun-17 07:00N 32°45' W 091°10'0 0.0
2018-Jun-17 06:30N 32°45' W 091°10'0 0.0
2018-Jun-17 06:00N 32°45' W 091°10'0 0.0
2018-Jun-17 05:30N 32°45' W 091°10'0 0.0
2018-Jun-17 05:00N 32°45' W 091°10'0 0.0
2018-Jun-17 04:30N 32°45' W 091°10'0 0.0
2018-Jun-17 04:01N 32°45' W 091°10'1 1.0
2018-Jun-17 03:29N 32°45' W 091°10'1 1.8
2018-Jun-17 02:58N 32°44' W 091°09'0 0.1
2018-Jun-17 02:30N 32°44' W 091°09'1 1.0
2018-Jun-17 01:39N 32°45' W 091°10'1 1.5
2018-Jun-17 01:09N 32°45' W 091°09'0 0.1
2018-Jun-17 00:56N 32°44' W 091°09'5 0.4
2018-Jun-16 12:49N 32°40' W 091°07'1 2.4
2018-Jun-16 12:30N 32°40' W 091°07'1 1.7
2018-Jun-16 12:00N 32°40' W 091°08'0 0.7
2018-Jun-16 11:30N 32°39' W 091°09'0 1.0
2018-Jun-16 11:01N 32°39' W 091°09'1 2.5
2018-Jun-16 10:30N 32°38' W 091°09'1 2.3
2018-Jun-16 10:01N 32°37' W 091°09'1 2.1
2018-Jun-16 09:31N 32°36' W 091°08'1 1.8
2018-Jun-16 09:01N 32°35' W 091°07'1 2.1
2018-Jun-16 08:30N 32°34' W 091°07'1 1.8
2018-Jun-16 08:00N 32°34' W 091°06'1 1.5
2018-Jun-16 07:29N 32°33' W 091°06'1 2.0
2018-Jun-16 07:00N 32°32' W 091°06'1 2.2
2018-Jun-16 06:28N 32°31' W 091°07'1 1.9
2018-Jun-16 05:59N 32°30' W 091°07'0 0.9
2018-Jun-16 05:30N 32°30' W 091°07'3 6.8
2018-Jun-16 05:00N 32°33' W 091°06'510.6
2018-Jun-16 04:30N 32°37' W 091°09'8 5.3
2018-Jun-16 02:59N 32°45' W 091°10'0 0.0
2018-Jun-16 02:19N 32°45' W 091°10'0 0.0
2018-Jun-16 01:15N 32°45' W 091°10'0 0.0
2018-Jun-16 01:00N 32°45' W 091°10'0 0.0
2018-Jun-15 12:28N 32°45' W 091°10'0 0.0
2018-Jun-15 12:00N 32°45' W 091°10'0 0.0
2018-Jun-15 11:30N 32°45' W 091°10'0 0.0
2018-Jun-15 11:01N 32°45' W 091°10'0 0.0
2018-Jun-15 10:31N 32°45' W 091°10'0 0.0
2018-Jun-15 10:00N 32°45' W 091°10'0 0.0
2018-Jun-15 09:29N 32°45' W 091°10'0 0.4
2018-Jun-15 09:01N 32°45' W 091°10'0 0.0
2018-Jun-15 08:16N 32°45' W 091°10'0 0.0
2018-Jun-15 07:56N 32°45' W 091°10'0 0.2
2018-Jun-15 07:28N 32°45' W 091°10'0 0.4
2018-Jun-15 07:00N 32°45' W 091°10'1 1.9
2018-Jun-15 06:22N 32°44' W 091°09'0 0.5
2018-Jun-15 06:00N 32°44' W 091°09'0 0.1
2018-Jun-15 05:30N 32°44' W 091°09'0 0.0
2018-Jun-15 05:00N 32°44' W 091°09'0 0.0
2018-Jun-15 04:14N 32°44' W 091°09'0 0.1
2018-Jun-15 04:00N 32°44' W 091°09'1 2.0
2018-Jun-15 03:28N 32°45' W 091°10'5 1.0
2018-Jun-14 22:13N 32°40' W 091°08'0 1.7
2018-Jun-14 22:00N 32°40' W 091°08'1 1.0
2018-Jun-14 21:26N 32°40' W 091°08'2 2.7
2018-Jun-14 20:47N 32°38' W 091°09'1 2.9
2018-Jun-14 20:29N 32°37' W 091°09'1 2.4
2018-Jun-14 20:00N 32°36' W 091°08'  

Dump ship's entire track history